El Paso, TX (88523)

3:38 PM MDT on August 02, 2015 (GMT -0600)
SanClemente Estates | | Change Station
CLOSE
Current Station
Personal Weather Station
Location: EL PASO, TX
Elevation: 4606 ft
Nearby Weather Stations

Elev 4606 ft 31.82 °N, 106.50 °W | Updated 19 seconds ago

Scattered Clouds
Scattered Clouds
90.3 °F
Feels Like 89 °F
N
0.0
Wind Variable Wind from SSW
Gusts 0.0 mph

Today
High -- | Low -- °F
--% Chance of Precip.
Yesterday
High -- | Low -- °F
Precip. -- in
6:21 AM 8:01 PM
Waning Gibbous, 91% visible
Pressure 29.74 in
Visibility 10.0 miles
Clouds Scattered Clouds 12000 ft
Scattered Clouds 25000 ft
Heat Index 89 °F
Dew Point 58 °F
Humidity 34%
Rainfall 0.00 in
Snow Depth Not available.
UV 9 out of 12
Pollen 4.90 out of 12
Air Quality Not available.
Flu Activity Not available.
METAR KELP 022051Z 11004KT 10SM SCT120 SCT250 33/12 A2998 RMK AO2 SLP070 CB DSNT NE-SE AND NW T03330122 58022

More Conditions Fewer Conditions

Pressure 29.74 in
Visibility 10.0 miles
Clouds Scattered Clouds 12000 ft
Scattered Clouds 25000 ft
Heat Index 89 °F
Dew Point 58 °F
Humidity 34%
Rainfall 0.00 in
Snow Depth Not available.
UV 9 out of 12
Pollen 4.90 out of 12
Air Quality Not available.
Flu Activity Not available.
METAR KELP 022051Z 11004KT 10SM SCT120 SCT250 33/12 A2998 RMK AO2 SLP070 CB DSNT NE-SE AND NW T03330122 58022

More Conditions Fewer Conditions

10-Day Weather Forecast

×

Almanac

Astronomy

Aug. 02, 2015 Rise Set
Actual Time
Civil Twilight
Nautical Twilight
Astronomical Twilight
Moon
Length of Visible Light
Length of Day
Tomorrow will be .
, % of the Moon is Illuminated

Today's Extremes

State Highs State Lows

Community

WunderPhotos

Upload Photos

1,843,366 photos uploaded!

WunderBlogs® & News

Nearby

Air Quality

  Air Quality AQ Index Pollutant
Not available.

Snow Depth

Station Depth Elevation

Earthquake Activity

City Distance Mag. Time & Date
Minimum magnitude displayed is 2.5.

Coastal Water Temperatures

Place Temperature

Stations

Nearby Weather Stations

Station Location Temp. Windchill Dew Point Humidity Wind Precip. Elev Updated Type